Share

Conway, NC (27820)

Conway - 35S (KNCCONWA4) Elev 105 ft | 36.43 °N, 77.23 °W | Change Station

Current weather conditions updated 1 minute ago

Mostly Cloudy
Mostly Cloudy
60.4 °F
Feels Like 60.4 °F
N
5.0
Wind Variable Wind from NE
Gusts 11.0 mph
Sunrise 6:28 AM
Sunset 7:47 PM
Moon Waning Gibbous

Tomorrow is forecast to be Warmer than today.

Pressure 30.25 in
Visibility 10.0 miles
Clouds Scattered Clouds 4000 ft
Mostly Cloudy 5500 ft
Dew Point 38 °F
Humidity 44%
Rainfall 0.01 in
Snow Depth Not available.
UV 3 out of 16
Pollen 10.30 out of 12
Air Quality Not available.
Flu Activity Local Activity
METAR KASJ 201955Z AUTO 02016G26KT 10SM SCT040 BKN055 16/02 A3025 RMK AO2 T01550019

More Conditions Fewer Conditions

Pressure 30.25 in
Visibility 10.0 miles
Clouds Scattered Clouds 4000 ft
Mostly Cloudy 5500 ft
Dew Point 38 °F
Humidity 44%
Rainfall 0.01 in
Snow Depth Not available.
UV 3 out of 16
Pollen 10.30 out of 12
Air Quality Not available.
Flu Activity Local Activity
METAR KASJ 201955Z AUTO 02016G26KT 10SM SCT040 BKN055 16/02 A3025 RMK AO2 T01550019

More Conditions Fewer Conditions

10-Day Weather Forecast

Almanac

Astronomy

Apr. 20, 2014 Rise Set
Actual Time 6:28 AM EDT 7:47 PM EDT
Civil Twilight 6:01 AM EDT 8:14 PM EDT
Nautical Twilight 5:29 AM EDT 8:46 PM EDT
Astronomical Twilight 4:56 AM EDT 9:20 PM EDT
Moon 12:21 AM EDT 10:50 AM EDT
Length of Visible Light 14h 12m
Length of Day
13h 18m
Tomorrow will be 2m 8s longer.
Waning Gibbous, 67% of the Moon is Illuminated
Today
Waning Gibbous
Apr 22
Last Quarter
Apr 29
New
May 6
First Quarter
May 14
Full

Today's Extremes

State Highs State Lows

Community

  • Morning Sun
    Morning Sun
  • after rain
    after rain
  • Columbine
    Columbine
  • Easter Sunrise
    Easter Sunrise
  • Easter Eve - The Promise - Lake Palestine, TX
    Easter Eve - The Promise - Lake Palestine, TX

WunderPhotos

Upload Photos

1,703,340 photos uploaded!

WunderBlogs® & News

Nearby

Snow Depth

Station Depth Elevation
No new snow has been reported.

Coastal Water Temperatures

Place Temperature
No Stations Reporting

Earthquake Activity

City Distance Mag. Time & Date
No recent earthquake activity has been reported nearby.
Minimum magnitude displayed is 2.5.

Nearby Weather Stations

Station Location Temp. Dew Point Humidity Wind Precip. Elev Updated Type
Conway - 35S, Conway, NC 60.4 °F 38 °F 44% NE  at  5.0 mph 0.00 in / hr 105 ft 4:12 PM EDT Normal
Ashley's Grove, Conway, NC 60.5 °F 40 °F 47% NNE  at  10.0 mph 0.00 in / hr 65 ft 4:13 PM EDT Rapid Fire
Aaron's Weather Service, Franklin, VA 60.6 °F 41 °F 49% ENE  at  27.7 mph 0.00 in / hr 98 ft 4:13 PM EDT Rapid Fire

Show More Stations Show Fewer Stations

What do you think?

We're not finished. Please let us know what you like, what you don't like, and what you are still missing.